Time;durP1;ratioP1;P1;durP2;ratioP2;P2;SDS_P1;SDS_P2;PMS_P1;PMS_P2;Temp;Humidity;BMP_temperature;BMP_pressure;BME280_temperature;BME280_humidity;BME280_pressure;Samples;Min_cycle;Max_cycle;Signal;HPM_P1;HPM_P2
2022/05/10 00:00:10;;;;;;;6.65;5.93;;;;;;;;;;4897973;29;20029;-68
2022/05/10 00:02:37;;;;;;;7.53;6.10;;;;;;;;;;4898175;29;20040;-68
2022/05/10 00:05:03;;;;;;;8.60;6.28;;;;;;;;;;4898009;29;20025;-68
2022/05/10 00:07:32;;;;;;;7.18;5.93;;;;;;;;;;4897457;29;20051;-68
2022/05/10 00:09:59;;;;;;;9.50;6.20;;;;;;;;;;4894864;29;20035;-68
2022/05/10 00:12:25;;;;;;;6.70;6.00;;;;;;;;;;4898050;29;20036;-68
2022/05/10 00:14:52;;;;;;;6.85;6.15;;;;;;;;;;4897831;29;20029;-68
2022/05/10 00:17:25;;;;;;;7.90;6.30;;;;;;;;;;4897737;29;20031;-68
2022/05/10 00:19:52;;;;;;;9.23;6.93;;;;;;;;;;4897708;29;20025;-68
2022/05/10 00:22:19;;;;;;;9.65;6.20;;;;;;;;;;4897397;29;20060;-68
2022/05/10 00:24:45;;;;;;;9.40;6.30;;;;;;;;;;4898181;29;20478;-68
2022/05/10 00:27:11;;;;;;;11.93;6.90;;;;;;;;;;4897328;29;20046;-68
2022/05/10 00:29:38;;;;;;;6.72;6.00;;;;;;;;;;4897417;29;20035;-68
2022/05/10 00:32:04;;;;;;;8.00;6.38;;;;;;;;;;4897618;29;20024;-68
2022/05/10 00:34:31;;;;;;;12.20;5.88;;;;;;;;;;4897639;29;20040;-68
2022/05/10 00:36:57;;;;;;;7.75;6.80;;;;;;;;;;4897777;29;20024;-68
2022/05/10 00:39:23;;;;;;;10.93;6.55;;;;;;;;;;4897244;29;20365;-68
2022/05/10 00:42:19;;;;;;;7.18;6.47;;;;;;;;;;4897245;29;20020;-68
2022/05/10 00:44:52;;;;;;;8.70;6.97;;;;;;;;;;4897015;29;20510;-68
2022/05/10 00:47:21;;;;;;;8.82;6.07;;;;;;;;;;4897187;29;20044;-68
2022/05/10 00:49:54;;;;;;;7.10;6.22;;;;;;;;;;4897157;29;20035;-68
2022/05/10 00:52:42;;;;;;;8.93;6.72;;;;;;;;;;4896968;29;20047;-68
2022/05/10 00:55:15;;;;;;;7.93;6.70;;;;;;;;;;4894985;29;20047;-68
2022/05/10 00:57:45;;;;;;;8.90;6.75;;;;;;;;;;4895719;29;20028;-68
2022/05/10 01:00:16;;;;;;;6.82;6.22;;;;;;;;;;4897269;29;20035;-68
2022/05/10 01:02:42;;;;;;;9.32;6.47;;;;;;;;;;4897273;29;20032;-68
2022/05/10 01:05:14;;;;;;;6.97;6.20;;;;;;;;;;4896946;29;20030;-68
2022/05/10 01:07:40;;;;;;;;;;;;;;;;;;4897511;29;20048;-68
2022/05/10 01:10:14;;;;;;;8.90;6.38;;;;;;;;;;4897293;29;20304;-68
2022/05/10 01:12:53;;;;;;;7.47;6.72;;;;;;;;;;4895424;29;20029;-68
2022/05/10 01:15:21;;;;;;;7.47;6.63;;;;;;;;;;4897109;29;20044;-68
2022/05/10 01:17:48;;;;;;;9.70;6.45;;;;;;;;;;4927550;29;20029;-68
2022/05/10 01:20:20;;;;;;;8.05;7.20;;;;;;;;;;4896312;29;20036;-68
2022/05/10 01:22:49;;;;;;;8.93;6.63;;;;;;;;;;4897105;29;20045;-68
2022/05/10 01:25:28;;;;;;;8.18;7.38;;;;;;;;;;4896920;29;20045;-68
2022/05/10 01:28:13;;;;;;;8.30;7.50;;;;;;;;;;4897365;29;20390;-68
2022/05/10 01:30:39;;;;;;;8.88;7.45;;;;;;;;;;4897265;29;20043;-68
2022/05/10 01:36:10;;;;;;;7.35;6.53;;;;;;;;;;4896292;29;21203;-68
2022/05/10 01:38:46;;;;;;;8.80;7.20;;;;;;;;;;4896788;29;20036;-68
2022/05/10 01:41:18;;;;;;;10.63;6.90;;;;;;;;;;4896483;29;20035;-68
2022/05/10 01:43:48;;;;;;;10.32;7.20;;;;;;;;;;4900653;29;20025;-68
2022/05/10 01:46:20;;;;;;;7.87;7.07;;;;;;;;;;4900756;29;20032;-68
2022/05/10 01:48:50;;;;;;;9.90;6.90;;;;;;;;;;4899777;29;20040;-67
2022/05/10 01:51:27;;;;;;;8.73;7.22;;;;;;;;;;4900734;29;20029;-68
2022/05/10 01:53:54;;;;;;;7.60;6.80;;;;;;;;;;4900071;29;21148;-68
2022/05/10 01:56:21;;;;;;;11.43;7.22;;;;;;;;;;4899940;29;20504;-68
2022/05/10 01:58:48;;;;;;;7.88;7.05;;;;;;;;;;4900109;29;20040;-68
2022/05/10 02:01:17;;;;;;;9.40;7.22;;;;;;;;;;4900153;29;20406;-68
2022/05/10 02:03:49;;;;;;;7.90;7.13;;;;;;;;;;4900556;29;20024;-68
2022/05/10 02:06:34;;;;;;;8.38;7.50;;;;;;;;;;4899945;29;20028;-68
2022/05/10 02:09:00;;;;;;;8.68;7.13;;;;;;;;;;4899974;29;20036;-68
2022/05/10 02:11:26;;;;;;;7.82;7.03;;;;;;;;;;4899971;29;20024;-68
2022/05/10 02:13:59;;;;;;;9.18;7.07;;;;;;;;;;4900092;29;20527;-67
2022/05/10 02:16:27;;;;;;;10.25;6.80;;;;;;;;;;4899955;29;20375;-68
2022/05/10 02:18:54;;;;;;;8.52;7.13;;;;;;;;;;4899996;29;20020;-68
2022/05/10 02:21:24;;;;;;;8.55;6.78;;;;;;;;;;4898663;29;20405;-68
2022/05/10 02:23:53;;;;;;;9.23;7.70;;;;;;;;;;4900008;29;20041;-68
2022/05/10 02:26:23;;;;;;;8.95;6.70;;;;;;;;;;4899700;29;20013;-67
2022/05/10 02:29:08;;;;;;;10.60;7.80;;;;;;;;;;4900288;29;20032;-68
2022/05/10 02:34:34;;;;;;;11.98;7.15;;;;;;;;;;4884876;29;20031;-68
2022/05/10 02:37:00;;;;;;;7.90;7.03;;;;;;;;;;4899893;29;20029;-68
2022/05/10 02:39:26;;;;;;;14.57;7.28;;;;;;;;;;4899758;29;20036;-68
2022/05/10 02:41:53;;;;;;;8.18;7.38;;;;;;;;;;4899559;29;20589;-68
2022/05/10 02:44:20;;;;;;;7.85;7.13;;;;;;;;;;4899388;29;20036;-68
2022/05/10 02:46:46;;;;;;;9.10;7.50;;;;;;;;;;4898837;29;20398;-67
2022/05/10 02:49:12;;;;;;;8.45;6.93;;;;;;;;;;4899478;29;20039;-68
2022/05/10 02:51:39;;;;;;;7.20;6.50;;;;;;;;;;4899687;29;20032;-68
2022/05/10 02:54:05;;;;;;;8.48;6.90;;;;;;;;;;4899365;29;20036;-68
2022/05/10 02:56:31;;;;;;;11.10;7.32;;;;;;;;;;4898915;29;20051;-68
2022/05/10 02:59:17;;;;;;;8.00;7.20;;;;;;;;;;4899496;29;20405;-68
2022/05/10 03:02:02;;;;;;;9.70;7.38;;;;;;;;;;4885905;29;20032;-68
2022/05/10 03:04:36;;;;;;;10.10;7.47;;;;;;;;;;4899302;29;20044;-67
2022/05/10 03:07:03;;;;;;;8.75;7.50;;;;;;;;;;4895649;29;20489;-67
2022/05/10 03:09:29;;;;;;;10.35;7.32;;;;;;;;;;4899210;29;20351;-67
2022/05/10 03:11:56;;;;;;;8.82;7.93;;;;;;;;;;4899128;29;20517;-68
2022/05/10 03:14:23;;;;;;;9.95;7.47;;;;;;;;;;4898851;29;20028;-68
2022/05/10 03:16:49;;;;;;;9.63;8.05;;;;;;;;;;4898827;29;20494;-68
2022/05/10 03:19:18;;;;;;;8.35;7.20;;;;;;;;;;4899049;29;20032;-68
2022/05/10 03:21:45;;;;;;;9.32;7.70;;;;;;;;;;4899220;29;20055;-68
2022/05/10 03:24:11;;;;;;;8.52;7.63;;;;;;;;;;4898518;29;20505;-68
2022/05/10 03:26:38;;;;;;;8.05;7.25;;;;;;;;;;4898614;29;20025;-67
2022/05/10 03:29:06;;;;;;;8.60;7.70;;;;;;;;;;4898538;29;20064;-68
2022/05/10 03:31:32;;;;;;;10.65;8.90;;;;;;;;;;4898809;29;20021;-68
2022/05/10 03:36:43;;;;;;;8.32;7.50;;;;;;;;;;4897545;29;20028;-68
2022/05/10 03:39:10;;;;;;;10.10;7.28;;;;;;;;;;4898343;29;20024;-68
2022/05/10 03:41:36;;;;;;;10.82;7.82;;;;;;;;;;4898868;29;20039;-69
2022/05/10 03:44:03;;;;;;;9.43;7.40;;;;;;;;;;4898249;29;20027;-68
2022/05/10 03:46:29;;;;;;;8.60;7.05;;;;;;;;;;4897954;29;20533;-69
2022/05/10 03:48:55;;;;;;;12.32;7.50;;;;;;;;;;4898723;29;20037;-68
2022/05/10 03:51:21;;;;;;;8.60;7.63;;;;;;;;;;4898433;29;20024;-68
2022/05/10 03:53:48;;;;;;;12.82;7.72;;;;;;;;;;4898164;29;20447;-68
2022/05/10 03:56:14;;;;;;;9.00;8.00;;;;;;;;;;4897872;29;20027;-68
2022/05/10 03:58:40;;;;;;;10.10;7.75;;;;;;;;;;4898307;29;20367;-69
2022/05/10 04:01:07;;;;;;;10.00;7.97;;;;;;;;;;4897944;29;20106;-69
2022/05/10 04:03:34;;;;;;;9.18;7.78;;;;;;;;;;4897550;29;20039;-68
2022/05/10 04:06:01;;;;;;;9.40;7.90;;;;;;;;;;4897480;29;20038;-68
2022/05/10 04:08:27;;;;;;;10.32;7.88;;;;;;;;;;4897780;29;20319;-68
2022/05/10 04:10:54;;;;;;;10.38;7.95;;;;;;;;;;4898058;29;20029;-68
2022/05/10 04:13:20;;;;;;;12.00;7.00;;;;;;;;;;4898200;29;20040;-68
2022/05/10 04:15:47;;;;;;;11.18;8.13;;;;;;;;;;4898065;29;20023;-68
2022/05/10 04:18:13;;;;;;;10.10;7.25;;;;;;;;;;4897638;29;20405;-68
2022/05/10 04:20:39;;;;;;;8.93;7.22;;;;;;;;;;4897598;29;20045;-68
2022/05/10 04:23:06;;;;;;;8.82;7.90;;;;;;;;;;4897795;29;20021;-68
2022/05/10 04:25:32;;;;;;;9.65;8.00;;;;;;;;;;4897769;29;20028;-68
2022/05/10 04:27:59;;;;;;;9.20;8.30;;;;;;;;;;4898066;29;20052;-69
2022/05/10 04:30:25;;;;;;;13.73;8.43;;;;;;;;;;4897239;29;20034;-68
2022/05/10 04:32:51;;;;;;;9.35;7.85;;;;;;;;;;4927739;29;20028;-68
2022/05/10 04:35:18;;;;;;;10.00;7.90;;;;;;;;;;4897491;29;20025;-68
2022/05/10 04:37:44;;;;;;;9.07;8.05;;;;;;;;;;4897323;29;20036;-68
2022/05/10 04:42:56;;;;;;;10.75;7.78;;;;;;;;;;4897363;29;20029;-68
2022/05/10 04:45:22;;;;;;;9.43;8.13;;;;;;;;;;4896954;29;20021;-68
2022/05/10 04:47:49;;;;;;;9.15;8.05;;;;;;;;;;4897029;29;20051;-69
2022/05/10 04:50:15;;;;;;;8.88;7.97;;;;;;;;;;4897696;29;20021;-68
2022/05/10 04:52:42;;;;;;;9.45;8.05;;;;;;;;;;4897132;29;20037;-69
2022/05/10 04:55:09;;;;;;;10.05;8.38;;;;;;;;;;4897399;29;20035;-68
2022/05/10 04:57:36;;;;;;;9.77;8.00;;;;;;;;;;4897137;29;20036;-68
2022/05/10 05:00:03;;;;;;;8.82;7.80;;;;;;;;;;4897158;29;20083;-68
2022/05/10 05:02:30;;;;;;;12.35;8.27;;;;;;;;;;4897012;29;20027;-68
2022/05/10 05:04:56;;;;;;;8.50;7.70;;;;;;;;;;4897060;29;20500;-68
2022/05/10 05:07:22;;;;;;;10.40;8.18;;;;;;;;;;4897070;29;20048;-68
2022/05/10 05:09:49;;;;;;;9.38;8.32;;;;;;;;;;4897400;29;20035;-68
2022/05/10 05:12:15;;;;;;;12.32;7.82;;;;;;;;;;4896383;29;20031;-68
2022/05/10 05:14:42;;;;;;;9.40;7.68;;;;;;;;;;4896337;29;20102;-68
2022/05/10 05:17:08;;;;;;;10.23;7.95;;;;;;;;;;4896112;29;20039;-68
2022/05/10 05:19:34;;;;;;;8.95;8.00;;;;;;;;;;4896986;29;20051;-68
2022/05/10 05:22:01;;;;;;;8.38;7.57;;;;;;;;;;4897282;29;20055;-68
2022/05/10 05:24:27;;;;;;;8.23;7.28;;;;;;;;;;4896680;29;20031;-68
2022/05/10 05:26:54;;;;;;;10.80;7.55;;;;;;;;;;4896549;29;20032;-68
2022/05/10 05:29:20;;;;;;;9.02;8.13;;;;;;;;;;4896555;29;20035;-68
2022/05/10 05:31:47;;;;;;;8.75;7.70;;;;;;;;;;4896682;29;20028;-68
2022/05/10 05:34:13;;;;;;;11.30;8.38;;;;;;;;;;4896697;29;20032;-68
2022/05/10 05:36:40;;;;;;;11.00;8.05;;;;;;;;;;4896855;29;20028;-68
2022/05/10 05:39:06;;;;;;;9.05;7.82;;;;;;;;;;4896595;29;20032;-68
2022/05/10 05:41:32;;;;;;;14.27;7.85;;;;;;;;;;4896216;29;20021;-68
2022/05/10 05:43:59;;;;;;;13.13;8.32;;;;;;;;;;4896659;29;20033;-68
2022/05/10 05:46:25;;;;;;;8.85;7.38;;;;;;;;;;4896643;29;20013;-68
2022/05/10 05:48:52;;;;;;;14.02;8.63;;;;;;;;;;4896981;29;20409;-68
2022/05/10 05:51:18;;;;;;;10.77;8.23;;;;;;;;;;4896378;29;20029;-68
2022/05/10 05:53:44;;;;;;;8.65;7.55;;;;;;;;;;4896243;29;20041;-68
2022/05/10 05:56:11;;;;;;;9.15;7.55;;;;;;;;;;4895964;29;20023;-68
2022/05/10 05:58:41;;;;;;;8.32;7.30;;;;;;;;;;4896253;29;20374;-68
2022/05/10 06:01:11;;;;;;;8.32;6.95;;;;;;;;;;4895201;29;20037;-68
2022/05/10 06:03:37;;;;;;;8.25;7.43;;;;;;;;;;4896358;29;20039;-68
2022/05/10 06:06:04;;;;;;;8.48;6.97;;;;;;;;;;4896253;29;20040;-68
2022/05/10 06:08:30;;;;;;;8.90;7.22;;;;;;;;;;4896265;29;20047;-68
2022/05/10 06:10:57;;;;;;;6.95;6.20;;;;;;;;;;4895993;29;20024;-68
2022/05/10 06:13:24;;;;;;;6.53;5.82;;;;;;;;;;4896294;29;20037;-68
2022/05/10 06:15:50;;;;;;;7.80;6.50;;;;;;;;;;4897285;29;20017;-68
2022/05/10 06:18:16;;;;;;;17.23;6.78;;;;;;;;;;4896181;29;20035;-68
2022/05/10 06:20:43;;;;;;;7.55;5.85;;;;;;;;;;4895932;29;20037;-68
2022/05/10 06:23:09;;;;;;;7.85;5.80;;;;;;;;;;4896153;29;20405;-68
2022/05/10 06:25:36;;;;;;;11.88;5.45;;;;;;;;;;4895612;29;20031;-68
2022/05/10 06:28:03;;;;;;;7.68;6.03;;;;;;;;;;4897513;29;20047;-68
2022/05/10 06:30:29;;;;;;;8.90;5.20;;;;;;;;;;4899173;29;20020;-68
2022/05/10 06:32:57;;;;;;;7.78;5.05;;;;;;;;;;4899251;29;20037;-68
2022/05/10 06:35:23;;;;;;;12.95;5.55;;;;;;;;;;4899752;29;20031;-68
2022/05/10 06:40:34;;;;;;;9.15;5.47;;;;;;;;;;4884503;29;20028;-69
2022/05/10 06:43:01;;;;;;;11.55;5.00;;;;;;;;;;4899315;29;20137;-69
2022/05/10 06:45:28;;;;;;;6.82;5.00;;;;;;;;;;4899033;29;20398;-69
2022/05/10 06:47:54;;;;;;;8.88;5.20;;;;;;;;;;4898535;29;20047;-69
2022/05/10 06:50:22;;;;;;;5.43;4.63;;;;;;;;;;4898772;29;20032;-68
2022/05/10 06:52:52;;;;;;;6.07;4.20;;;;;;;;;;4899021;29;20028;-69
2022/05/10 06:55:19;;;;;;;6.40;5.50;;;;;;;;;;4898830;29;20421;-69
2022/05/10 06:57:45;;;;;;;11.98;6.28;;;;;;;;;;4899326;29;20043;-69
2022/05/10 07:00:13;;;;;;;5.78;4.40;;;;;;;;;;4897785;29;20073;-69
2022/05/10 07:02:39;;;;;;;5.35;4.70;;;;;;;;;;4898656;29;20565;-69
2022/05/10 07:05:06;;;;;;;7.75;4.70;;;;;;;;;;4898453;29;20027;-69
2022/05/10 07:07:33;;;;;;;4.95;4.45;;;;;;;;;;4898589;29;20048;-69
2022/05/10 07:09:59;;;;;;;7.10;4.70;;;;;;;;;;4898629;29;20030;-69
2022/05/10 07:12:25;;;;;;;6.85;4.40;;;;;;;;;;4897206;29;20032;-69
2022/05/10 07:14:52;;;;;;;4.22;3.75;;;;;;;;;;4897050;29;20516;-69
2022/05/10 07:17:19;;;;;;;7.13;4.50;;;;;;;;;;4900199;29;20035;-69
2022/05/10 07:19:45;;;;;;;4.80;4.30;;;;;;;;;;4896226;29;20032;-69
2022/05/10 07:22:12;;;;;;;6.60;4.00;;;;;;;;;;4903175;29;20413;-69
2022/05/10 07:24:38;;;;;;;5.38;4.22;;;;;;;;;;4903393;29;20051;-68
2022/05/10 07:27:05;;;;;;;4.60;4.10;;;;;;;;;;4883180;29;20059;-70
2022/05/10 07:29:31;;;;;;;4.57;4.13;;;;;;;;;;4896069;29;20370;-69
2022/05/10 07:31:57;;;;;;;7.45;3.85;;;;;;;;;;4896229;29;20036;-67
2022/05/10 07:34:23;;;;;;;4.15;3.78;;;;;;;;;;4896987;29;20043;-69
2022/05/10 07:36:50;;;;;;;5.95;4.20;;;;;;;;;;4896132;29;20047;-69
2022/05/10 07:39:18;;;;;;;6.20;3.90;;;;;;;;;;4894549;29;20035;-69
2022/05/10 07:41:44;;;;;;;7.53;3.90;;;;;;;;;;4896206;29;20520;-69
2022/05/10 07:44:11;;;;;;;6.60;3.70;;;;;;;;;;4895964;29;20485;-69
2022/05/10 07:46:38;;;;;;;4.28;3.88;;;;;;;;;;4895615;29;20044;-68
2022/05/10 07:49:04;;;;;;;4.95;3.80;;;;;;;;;;4896506;29;20127;-69
2022/05/10 07:51:31;;;;;;;4.75;3.80;;;;;;;;;;4896571;29;20035;-70
2022/05/10 07:53:57;;;;;;;7.22;3.90;;;;;;;;;;4896180;29;20024;-69
2022/05/10 07:56:26;;;;;;;4.40;4.00;;;;;;;;;;4896439;29;20036;-69
2022/05/10 07:58:53;;;;;;;4.28;3.67;;;;;;;;;;4896596;29;20036;-69
2022/05/10 08:01:20;;;;;;;5.85;3.95;;;;;;;;;;4895200;29;20521;-69
2022/05/10 08:03:46;;;;;;;5.68;4.28;;;;;;;;;;4896508;29;20054;-69
2022/05/10 08:06:13;;;;;;;5.85;4.03;;;;;;;;;;4895518;29;20045;-69
2022/05/10 08:08:40;;;;;;;7.05;4.00;;;;;;;;;;4895432;29;20040;-69
2022/05/10 08:11:08;;;;;;;7.57;3.83;;;;;;;;;;4895971;29;20442;-69
2022/05/10 08:13:35;;;;;;;5.43;3.60;;;;;;;;;;4896242;29;20076;-70
2022/05/10 08:16:01;;;;;;;8.57;3.33;;;;;;;;;;4896485;29;20031;-69
2022/05/10 08:18:28;;;;;;;4.50;3.45;;;;;;;;;;4895750;29;20043;-70
2022/05/10 08:20:56;;;;;;;3.80;3.50;;;;;;;;;;4894553;29;20049;-69
2022/05/10 08:23:25;;;;;;;4.97;3.60;;;;;;;;;;4895970;29;20498;-70
2022/05/10 08:25:52;;;;;;;5.53;3.47;;;;;;;;;;4895884;29;20032;-70
2022/05/10 08:28:18;;;;;;;7.45;3.33;;;;;;;;;;4895704;29;20047;-66
2022/05/10 08:30:46;;;;;;;8.57;3.60;;;;;;;;;;4896473;29;20032;-69
2022/05/10 08:33:33;;;;;;;3.90;3.40;;;;;;;;;;4895901;29;20039;-69
2022/05/10 08:36:00;;;;;;;4.72;3.53;;;;;;;;;;4894153;29;20405;-67
2022/05/10 08:38:27;;;;;;;3.75;3.28;;;;;;;;;;4894821;29;20025;-69
2022/05/10 08:40:59;;;;;;;5.00;3.63;;;;;;;;;;4895042;29;20024;-69
2022/05/10 08:43:49;;;;;;;5.47;4.28;;;;;;;;;;4894906;29;20038;-69
2022/05/10 08:46:16;;;;;;;4.47;3.60;;;;;;;;;;4887725;29;20049;-69
2022/05/10 08:48:45;;;;;;;6.68;3.40;;;;;;;;;;4892661;29;20462;-69
2022/05/10 08:51:12;;;;;;;9.77;3.75;;;;;;;;;;4894486;29;20482;-69
2022/05/10 08:53:39;;;;;;;6.47;2.97;;;;;;;;;;4895110;29;20033;-69
2022/05/10 08:56:16;;;;;;;3.72;3.40;;;;;;;;;;4895302;29;20036;-69
2022/05/10 08:58:57;;;;;;;4.15;3.30;;;;;;;;;;4895411;29;20032;-69
2022/05/10 09:01:26;;;;;;;6.88;3.20;;;;;;;;;;4894953;29;20070;-69
2022/05/10 09:04:01;;;;;;;4.28;3.00;;;;;;;;;;4893776;29;20375;-69
2022/05/10 09:06:37;;;;;;;4.35;3.17;;;;;;;;;;4895185;29;20684;-69
2022/05/10 09:09:03;;;;;;;5.45;3.30;;;;;;;;;;4895227;29;20047;-69
2022/05/10 09:11:35;;;;;;;6.38;3.22;;;;;;;;;;4925710;29;20025;-70
2022/05/10 09:14:02;;;;;;;7.10;3.10;;;;;;;;;;4895147;29;20028;-69
2022/05/10 09:16:28;;;;;;;4.57;3.22;;;;;;;;;;4895096;29;20048;-70
2022/05/10 09:18:54;;;;;;;4.85;3.10;;;;;;;;;;4894848;29;20021;-69
2022/05/10 09:21:24;;;;;;;2.90;2.70;;;;;;;;;;4894885;29;20873;-69
2022/05/10 09:23:54;;;;;;;6.22;3.40;;;;;;;;;;4894709;29;20035;-69
2022/05/10 09:26:23;;;;;;;6.78;3.03;;;;;;;;;;4894535;29;20036;-69
2022/05/10 09:28:58;;;;;;;7.63;2.80;;;;;;;;;;4894940;29;20128;-69
2022/05/10 09:37:14;;;;;;;3.20;2.80;;;;;;;;;;4891346;29;20037;-69
2022/05/10 09:39:49;;;;;;;4.68;2.97;;;;;;;;;;4895362;29;20029;-69
2022/05/10 09:42:36;;;;;;;3.05;2.72;;;;;;;;;;4895141;29;20025;-69
2022/05/10 09:45:07;;;;;;;9.70;3.15;;;;;;;;;;4894973;29;20025;-70
2022/05/10 09:47:34;;;;;;;4.50;3.10;;;;;;;;;;4894411;29;20032;-70
2022/05/10 09:50:15;;;;;;;4.38;2.83;;;;;;;;;;4895007;29;20447;-69
2022/05/10 09:52:42;;;;;;;6.05;2.83;;;;;;;;;;4897380;29;20033;-68
2022/05/10 09:55:10;;;;;;;4.03;2.17;;;;;;;;;;4894890;29;20038;-68
2022/05/10 09:57:38;;;;;;;7.75;2.90;;;;;;;;;;4894902;29;20051;-69
2022/05/10 10:00:05;;;;;;;4.95;2.30;;;;;;;;;;4894021;29;20042;-69
2022/05/10 10:02:33;;;;;;;6.90;2.50;;;;;;;;;;4894589;29;20498;-70
2022/05/10 10:05:17;;;;;;;3.40;2.38;;;;;;;;;;4898406;29;20076;-70
2022/05/10 10:07:51;;;;;;;6.57;2.65;;;;;;;;;;4890324;29;20035;-70
2022/05/10 10:10:20;;;;;;;3.63;2.00;;;;;;;;;;4898251;29;20367;-68
2022/05/10 10:12:47;;;;;;;2.35;2.15;;;;;;;;;;4898765;29;20036;-68
2022/05/10 10:15:23;;;;;;;4.03;1.60;;;;;;;;;;4898375;29;20037;-67
2022/05/10 10:17:51;;;;;;;2.65;2.00;;;;;;;;;;4897888;29;20037;-67
2022/05/10 10:20:37;;;;;;;3.40;2.17;;;;;;;;;;4897919;29;20031;-67
2022/05/10 10:23:07;;;;;;;2.30;2.10;;;;;;;;;;4897855;29;20487;-67
2022/05/10 10:25:39;;;;;;;2.15;1.73;;;;;;;;;;4883589;29;20512;-68
2022/05/10 10:28:08;;;;;;;6.18;2.00;;;;;;;;;;4897746;29;20490;-68
2022/05/10 10:30:58;;;;;;;3.95;2.03;;;;;;;;;;4897332;29;20670;-68
2022/05/10 10:33:29;;;;;;;2.20;1.70;;;;;;;;;;4895244;29;20568;-69
2022/05/10 10:36:07;;;;;;;3.20;2.05;;;;;;;;;;4897474;29;20046;-68
2022/05/10 10:38:39;;;;;;;2.80;1.73;;;;;;;;;;4897456;29;20457;-69
2022/05/10 10:41:09;;;;;;;3.05;2.22;;;;;;;;;;4897611;29;20442;-69
2022/05/10 10:43:35;;;;;;;;;;;;;;;;;;4898001;29;20413;-70
2022/05/10 10:46:01;;;;;;;3.17;2.08;;;;;;;;;;4897761;29;19915;-69
2022/05/10 10:48:35;;;;;;;4.45;1.90;;;;;;;;;;4897598;29;20398;-69
2022/05/10 10:51:01;;;;;;;2.63;1.90;;;;;;;;;;4912408;29;20043;-69
2022/05/10 10:53:29;;;;;;;4.07;1.90;;;;;;;;;;4897520;29;20394;-69
2022/05/10 10:56:04;;;;;;;3.58;2.05;;;;;;;;;;4897756;29;20029;-69
2022/05/10 10:58:41;;;;;;;4.47;2.13;;;;;;;;;;4882330;29;20052;-69
2022/05/10 11:01:27;;;;;;;2.60;1.88;;;;;;;;;;4894194;29;20405;-69
2022/05/10 11:04:05;;;;;;;4.10;1.70;;;;;;;;;;4891481;29;20107;-69
2022/05/10 11:06:35;;;;;;;2.30;1.65;;;;;;;;;;4927544;29;20040;-69
2022/05/10 11:09:02;;;;;;;3.50;1.77;;;;;;;;;;4896931;29;20446;-69
2022/05/10 11:11:34;;;;;;;4.07;1.75;;;;;;;;;;4896562;29;20035;-69
2022/05/10 11:14:20;;;;;;;3.58;1.90;;;;;;;;;;4896511;29;20031;-69
2022/05/10 11:16:46;;;;;;;4.78;1.95;;;;;;;;;;4883993;29;20032;-69
2022/05/10 11:19:18;;;;;;;2.45;1.73;;;;;;;;;;4896779;29;20028;-69
2022/05/10 11:21:50;;;;;;;2.97;1.63;;;;;;;;;;4895578;29;20048;-69
2022/05/10 11:24:16;;;;;;;6.20;1.70;;;;;;;;;;4897103;29;20040;-69
2022/05/10 11:27:00;;;;;;;3.63;1.85;;;;;;;;;;4896957;29;20076;-69
2022/05/10 11:29:27;;;;;;;2.15;1.60;;;;;;;;;;4896576;29;20039;-69
2022/05/10 11:31:59;;;;;;;3.42;1.70;;;;;;;;;;4896504;29;20039;-69
2022/05/10 11:34:38;;;;;;;2.30;1.70;;;;;;;;;;4897057;29;20034;-71
2022/05/10 11:37:05;;;;;;;9.00;2.10;;;;;;;;;;4893619;29;20039;-69
2022/05/10 11:39:32;;;;;;;13.60;2.53;;;;;;;;;;4926586;29;20039;-69
2022/05/10 11:42:10;;;;;;;4.72;1.98;;;;;;;;;;4896272;29;20608;-69
2022/05/10 11:44:47;;;;;;;2.83;1.77;;;;;;;;;;4895850;29;20048;-68
2022/05/10 11:47:19;;;;;;;3.10;1.60;;;;;;;;;;4896358;29;20033;-69
2022/05/10 11:49:49;;;;;;;2.55;1.70;;;;;;;;;;4896415;29;20110;-69
2022/05/10 11:52:18;;;;;;;2.92;1.73;;;;;;;;;;4896823;29;20028;-69
2022/05/10 11:54:53;;;;;;;2.35;1.70;;;;;;;;;;4895516;29;20039;-69
2022/05/10 11:57:21;;;;;;;2.58;1.55;;;;;;;;;;4896657;29;20040;-69
2022/05/10 11:59:48;;;;;;;2.70;1.77;;;;;;;;;;4894163;29;20508;-70
2022/05/10 12:02:30;;;;;;;3.13;1.65;;;;;;;;;;4896157;29;20032;-69
2022/05/10 12:05:12;;;;;;;4.15;1.60;;;;;;;;;;4896091;29;20035;-68
2022/05/10 12:07:59;;;;;;;3.55;1.70;;;;;;;;;;4888712;29;20029;-68
2022/05/10 12:10:35;;;;;;;3.85;1.83;;;;;;;;;;4896137;29;20805;-69
2022/05/10 12:13:02;;;;;;;4.82;1.55;;;;;;;;;;4892464;29;20041;-70
2022/05/10 12:21:25;;;;;;;1.55;1.40;;;;;;;;;;4895796;29;20040;-69
2022/05/10 12:24:11;;;;;;;1.52;1.30;;;;;;;;;;4895650;29;20458;-69
2022/05/10 12:26:44;;;;;;;4.10;1.70;;;;;;;;;;4896016;29;20036;-70
2022/05/10 12:29:28;;;;;;;4.88;1.60;;;;;;;;;;4896180;29;20597;-70
2022/05/10 12:32:07;;;;;;;4.63;1.65;;;;;;;;;;4897861;29;20030;-69
2022/05/10 12:34:47;;;;;;;1.60;1.50;;;;;;;;;;4887874;29;20093;-70
2022/05/10 12:37:29;;;;;;;2.58;1.55;;;;;;;;;;4895899;29;20494;-69
2022/05/10 12:39:57;;;;;;;3.08;1.80;;;;;;;;;;4895824;29;20501;-68
2022/05/10 12:42:34;;;;;;;1.60;1.50;;;;;;;;;;4901867;29;20031;-69
2022/05/10 12:45:03;;;;;;;4.05;1.50;;;;;;;;;;4898044;29;20068;-69
2022/05/10 12:47:35;;;;;;;4.28;1.85;;;;;;;;;;4895731;29;20028;-68
2022/05/10 12:50:05;;;;;;;3.13;1.90;;;;;;;;;;4895423;29;20494;-68
2022/05/10 12:52:43;;;;;;;2.37;1.57;;;;;;;;;;4880926;29;20039;-69
2022/05/10 12:55:30;;;;;;;3.45;1.67;;;;;;;;;;4892701;29;20030;-68
2022/05/10 12:57:56;;;;;;;5.22;1.65;;;;;;;;;;4895194;29;20048;-69
2022/05/10 13:00:24;;;;;;;2.22;1.52;;;;;;;;;;4894939;29;20095;-69
2022/05/10 13:03:06;;;;;;;2.97;1.50;;;;;;;;;;4894954;29;20036;-68
2022/05/10 13:05:51;;;;;;;1.90;1.70;;;;;;;;;;4895088;29;20566;-69
2022/05/10 13:08:34;;;;;;;3.63;1.70;;;;;;;;;;4895013;29;20516;-69
2022/05/10 13:11:01;;;;;;;1.98;1.50;;;;;;;;;;4913495;29;20032;-69
2022/05/10 13:13:32;;;;;;;3.08;1.67;;;;;;;;;;4905622;29;20025;-69
2022/05/10 13:15:59;;;;;;;3.47;1.60;;;;;;;;;;4897445;29;20043;-67
2022/05/10 13:18:26;;;;;;;2.45;1.60;;;;;;;;;;4895022;29;20044;-68
2022/05/10 13:20:54;;;;;;;4.28;1.85;;;;;;;;;;4897373;29;20036;-69
2022/05/10 13:23:26;;;;;;;3.08;1.30;;;;;;;;;;4895362;29;20048;-69
2022/05/10 13:25:53;;;;;;;3.45;1.52;;;;;;;;;;4893312;29;20039;-68
2022/05/10 13:28:19;;;;;;;1.50;1.40;;;;;;;;;;4891639;29;20037;-69
2022/05/10 13:30:49;;;;;;;3.42;1.40;;;;;;;;;;4924860;29;20032;-68
2022/05/10 13:33:26;;;;;;;2.63;1.60;;;;;;;;;;4892794;29;20115;-69
2022/05/10 13:35:54;;;;;;;1.60;1.48;;;;;;;;;;4893829;29;20648;-69
2022/05/10 13:38:26;;;;;;;2.65;1.70;;;;;;;;;;4894636;29;20033;-68
2022/05/10 13:40:57;;;;;;;2.28;1.58;;;;;;;;;;4897491;29;20509;-68
2022/05/10 13:43:27;;;;;;;5.30;1.60;;;;;;;;;;4897088;29;20786;-69
2022/05/10 13:45:56;;;;;;;2.63;1.60;;;;;;;;;;4898413;29;20100;-69
2022/05/10 13:48:33;;;;;;;2.55;1.60;;;;;;;;;;4896296;29;20039;-68
2022/05/10 13:51:11;;;;;;;6.22;1.60;;;;;;;;;;4897602;29;20032;-68
2022/05/10 13:53:38;;;;;;;1.77;1.40;;;;;;;;;;4893813;29;20036;-69
2022/05/10 13:56:04;;;;;;;2.10;1.52;;;;;;;;;;4895221;29;20035;-68
2022/05/10 13:58:41;;;;;;;2.03;1.50;;;;;;;;;;4896661;29;20033;-68
2022/05/10 14:01:09;;;;;;;4.85;1.40;;;;;;;;;;4894335;29;20032;-68
2022/05/10 14:03:38;;;;;;;2.78;1.42;;;;;;;;;;4895424;29;20029;-69
2022/05/10 14:06:09;;;;;;;1.70;1.33;;;;;;;;;;4896063;29;20045;-69
2022/05/10 14:08:39;;;;;;;3.28;1.63;;;;;;;;;;4894382;29;20051;-68
2022/05/10 14:11:11;;;;;;;2.70;1.27;;;;;;;;;;4895633;29;20035;-69
2022/05/10 14:13:40;;;;;;;2.83;1.50;;;;;;;;;;4895496;29;20035;-69
2022/05/10 14:16:10;;;;;;;3.10;1.60;;;;;;;;;;4897770;29;20031;-69
2022/05/10 14:18:37;;;;;;;3.92;1.80;;;;;;;;;;4895547;29;20049;-69
2022/05/10 14:21:24;;;;;;;2.42;1.80;;;;;;;;;;4896767;29;20047;-69
2022/05/10 14:23:51;;;;;;;1.65;1.55;;;;;;;;;;4891583;29;20405;-69
2022/05/10 14:26:29;;;;;;;5.50;1.70;;;;;;;;;;4896375;29;20027;-68
2022/05/10 14:28:57;;;;;;;2.22;1.63;;;;;;;;;;4925945;29;20040;-68
2022/05/10 14:31:33;;;;;;;1.95;1.60;;;;;;;;;;4896254;29;20036;-67
2022/05/10 14:34:02;;;;;;;4.50;1.70;;;;;;;;;;4891501;29;20414;-68
2022/05/10 14:36:35;;;;;;;5.05;1.95;;;;;;;;;;4896152;29;20023;-68
2022/05/10 14:39:04;;;;;;;4.20;1.92;;;;;;;;;;4894401;29;20539;-68
2022/05/10 14:41:44;;;;;;;2.00;1.60;;;;;;;;;;4895974;29;20497;-68
2022/05/10 14:44:13;;;;;;;2.50;1.70;;;;;;;;;;4896770;29;20031;-69
2022/05/10 14:46:46;;;;;;;2.80;1.70;;;;;;;;;;4896426;29;20276;-69
2022/05/10 14:49:14;;;;;;;1.58;1.48;;;;;;;;;;4895380;29;20442;-69
2022/05/10 14:51:49;;;;;;;1.90;1.70;;;;;;;;;;4896713;29;20041;-69
2022/05/10 14:54:32;;;;;;;2.90;2.17;;;;;;;;;;4896063;29;20204;-69
2022/05/10 14:57:00;;;;;;;3.40;1.88;;;;;;;;;;4896305;29;20039;-69
2022/05/10 15:02:21;;;;;;;3.70;1.98;;;;;;;;;;4887301;29;20028;-70
2022/05/10 15:04:47;;;;;;;5.00;1.83;;;;;;;;;;4896305;29;20142;-69
2022/05/10 15:07:13;;;;;;;2.70;2.00;;;;;;;;;;4896494;29;20028;-69
2022/05/10 15:09:40;;;;;;;8.98;1.90;;;;;;;;;;4898330;29;20051;-69
2022/05/10 15:14:51;;;;;;;6.72;3.17;;;;;;;;;;4897402;29;20115;-69
2022/05/10 15:17:18;;;;;;;6.25;1.90;;;;;;;;;;4912049;29;20083;-69
2022/05/10 15:19:45;;;;;;;5.90;1.75;;;;;;;;;;4897416;29;20457;-69
2022/05/10 15:22:11;;;;;;;5.32;1.95;;;;;;;;;;4896235;29;20052;-69
2022/05/10 15:24:38;;;;;;;2.25;1.73;;;;;;;;;;4898069;29;20035;-69
2022/05/10 15:27:05;;;;;;;3.47;1.70;;;;;;;;;;4897469;29;20031;-69
2022/05/10 15:29:37;;;;;;;6.60;2.08;;;;;;;;;;4897552;29;20039;-69